Time;durP1;ratioP1;P1;durP2;ratioP2;P2;SDS_P1;SDS_P2;PMS_P1;PMS_P2;Temp;Humidity;BMP_temperature;BMP_pressure;BME280_temperature;BME280_humidity;BME280_pressure;Samples;Min_cycle;Max_cycle;Signal;HPM_P1;HPM_P2
2023/01/03 00:01:36;;;;;;;1.85;1.27;;;9.40;99.90;;;9.41;100.00;102027.94;5181711;28;20446;-72
2023/01/03 00:04:10;;;;;;;1.92;1.20;;;9.40;99.90;;;9.42;100.00;102029.75;5166084;28;20093;-72
2023/01/03 00:06:48;;;;;;;2.08;1.13;;;9.40;99.90;;;9.44;100.00;102033.31;5166356;28;20042;-71
2023/01/03 00:09:23;;;;;;;5.40;1.45;;;9.50;99.90;;;9.45;100.00;102029.94;5166046;28;20046;-72
2023/01/03 00:14:47;;;;;;;1.77;0.98;;;9.50;99.90;;;9.46;100.00;102021.31;5180641;28;20116;-72
2023/01/03 00:17:19;;;;;;;1.48;1.38;;;9.50;99.90;;;9.46;100.00;102021.31;5180555;28;20046;-71
2023/01/03 00:19:52;;;;;;;2.35;1.10;;;9.50;99.90;;;9.46;100.00;102010.91;5164552;28;20410;-71
2023/01/03 00:22:25;;;;;;;1.30;0.95;;;9.50;99.90;;;9.41;100.00;102017.53;5165662;28;20038;-71
2023/01/03 00:24:57;;;;;;;1.23;0.93;;;9.50;99.90;;;9.40;100.00;102018.34;5157879;28;20047;-72
2023/01/03 00:27:29;;;;;;;1.58;1.00;;;9.50;99.90;;;9.40;100.00;102025.25;5165948;28;20050;-71
2023/01/03 00:30:02;;;;;;;0.98;0.90;;;9.40;99.90;;;9.39;100.00;102028.66;5165383;28;20646;-72
2023/01/03 00:32:34;;;;;;;1.25;1.00;;;9.50;99.90;;;9.40;100.00;102036.56;5165833;28;20272;-71
2023/01/03 00:35:08;;;;;;;2.63;1.77;;;9.40;99.90;;;9.44;100.00;102037.63;5165577;28;20046;-72
2023/01/03 00:37:42;;;;;;;2.58;1.40;;;9.50;99.90;;;9.44;100.00;102032.44;5165056;28;20121;-72
2023/01/03 00:40:14;;;;;;;2.15;1.38;;;9.50;99.90;;;9.46;100.00;102030.84;5164450;28;20373;-72
2023/01/03 00:45:36;;;;;;;1.65;1.20;;;9.50;99.90;;;9.45;100.00;102037.75;5163343;28;20495;-71
2023/01/03 00:48:08;;;;;;;3.67;1.38;;;9.50;99.90;;;9.43;100.00;102033.25;5164895;28;20038;-71
2023/01/03 00:50:40;;;;;;;2.25;1.20;;;9.50;99.90;;;9.44;100.00;102038.53;5161904;28;20073;-72
2023/01/03 00:53:14;;;;;;;2.47;1.13;;;9.50;99.90;;;9.47;100.00;102043.94;5164508;28;20510;-73
2023/01/03 00:55:46;;;;;;;1.40;1.05;;;9.50;99.90;;;9.48;100.00;102040.53;5164967;28;20046;-72
2023/01/03 00:58:18;;;;;;;4.07;1.10;;;9.50;99.90;;;9.51;100.00;102045.00;5164444;28;20380;-70
2023/01/03 01:00:51;;;;;;;1.85;1.23;;;9.50;99.90;;;9.51;100.00;102037.19;5164361;28;20050;-72
2023/01/03 01:03:23;;;;;;;2.85;0.93;;;9.60;99.90;;;9.54;100.00;102044.28;5165203;28;20049;-71
2023/01/03 01:05:55;;;;;;;2.50;1.23;;;9.60;99.90;;;9.55;100.00;102041.78;5180010;28;20050;-72
2023/01/03 01:08:28;;;;;;;1.45;1.17;;;9.60;99.90;;;9.56;100.00;102055.69;5164732;28;20052;-71
2023/01/03 01:11:03;;;;;;;2.53;1.20;;;9.60;99.90;;;9.55;100.00;102060.00;5164793;28;20384;-71
2023/01/03 01:13:36;;;;;;;2.25;1.30;;;9.60;99.90;;;9.56;100.00;102055.69;5164309;28;20053;-72
2023/01/03 01:16:12;;;;;;;2.78;1.25;;;9.60;99.90;;;9.56;100.00;102068.69;5164664;28;20050;-71
2023/01/03 01:18:48;;;;;;;1.65;1.10;;;9.60;99.90;;;9.54;100.00;102055.59;5164339;28;20117;-71
2023/01/03 01:21:23;;;;;;;1.17;0.93;;;9.60;99.90;;;9.56;100.00;102066.09;5179755;28;20112;-73
2023/01/03 01:23:58;;;;;;;1.83;1.05;;;9.60;99.90;;;9.57;100.00;102060.06;5163705;28;20050;-72
2023/01/03 01:26:30;;;;;;;1.33;0.80;;;9.60;99.90;;;9.58;100.00;102069.69;5164170;28;20038;-71
2023/01/03 01:29:03;;;;;;;2.28;0.90;;;9.60;99.90;;;9.56;100.00;102069.59;5163985;28;20121;-73
2023/01/03 01:31:36;;;;;;;1.05;0.82;;;9.60;99.90;;;9.55;100.00;102073.00;5164008;28;20589;-71
2023/01/03 01:34:09;;;;;;;0.98;0.88;;;9.60;99.90;;;9.56;100.00;102079.13;5164101;28;20520;-72
2023/01/03 01:36:44;;;;;;;1.65;0.98;;;9.60;99.90;;;9.54;100.00;102080.75;5163593;28;20125;-72
2023/01/03 01:39:21;;;;;;;3.65;1.00;;;9.60;99.90;;;9.54;100.00;102085.94;5163165;28;20064;-72
2023/01/03 01:44:54;;;;;;;3.40;1.00;;;9.50;99.90;;;9.48;100.00;102089.97;5164189;28;20061;-71
2023/01/03 01:47:34;;;;;;;1.38;1.20;;;9.50;99.90;;;9.44;100.00;102090.59;5163936;28;20039;-71
2023/01/03 01:50:17;;;;;;;2.20;1.10;;;9.50;99.90;;;9.40;100.00;102090.34;5161986;28;20418;-73
2023/01/03 01:52:55;;;;;;;1.00;0.77;;;9.40;99.90;;;9.38;100.00;102097.13;5157952;28;20050;-72
2023/01/03 01:55:39;;;;;;;1.65;1.00;;;9.40;99.90;;;9.37;100.00;102108.34;5164556;28;20050;-71
2023/01/03 01:58:12;;;;;;;0.90;0.65;;;9.40;99.90;;;9.36;100.00;102112.66;5163775;28;20050;-72
2023/01/03 02:00:45;;;;;;;0.85;0.65;;;9.40;99.90;;;9.35;100.00;102110.88;5162960;28;20045;-72
2023/01/03 02:03:17;;;;;;;1.13;0.90;;;9.40;99.90;;;9.34;100.00;102113.38;5166461;28;20045;-72
2023/01/03 02:05:53;;;;;;;1.92;0.68;;;9.40;99.90;;;9.33;100.00;102117.69;5163173;28;20049;-71
2023/01/03 02:08:25;;;;;;;1.20;1.10;;;9.40;99.90;;;9.33;100.00;102115.09;5162949;28;20042;-72
2023/01/03 02:11:19;;;;;;;2.13;0.90;;;9.30;99.90;;;9.33;100.00;102117.69;5161916;28;20064;-71
2023/01/03 02:14:03;;;;;;;1.10;1.00;;;9.30;99.90;;;9.31;100.00;102115.78;5168814;28;20052;-72
2023/01/03 02:16:55;;;;;;;1.20;1.02;;;9.30;99.90;;;9.30;100.00;102122.69;5178472;28;20050;-72
2023/01/03 02:20:15;;;;;;;1.27;0.82;;;9.30;99.90;;;9.30;100.00;102127.91;5162545;28;20060;-71
2023/01/03 02:23:30;;;;;;;2.08;1.17;;;9.30;99.90;;;9.30;100.00;102132.22;5163641;28;20046;-71
2023/01/03 02:26:41;;;;;;;1.48;0.85;;;9.30;99.90;;;9.29;100.00;102120.91;5163424;28;20050;-71
2023/01/03 02:29:56;;;;;;;0.95;0.70;;;9.30;99.90;;;9.30;100.00;102127.00;5163257;28;20046;-72
2023/01/03 02:32:39;;;;;;;0.77;0.77;;;9.30;99.90;;;9.28;100.00;102129.53;5178949;28;20515;-72
2023/01/03 02:35:21;;;;;;;1.08;0.98;;;9.30;99.90;;;9.27;100.00;102130.31;5163526;28;20446;-71
2023/01/03 02:38:03;;;;;;;1.00;0.77;;;9.30;99.90;;;9.25;100.00;102127.59;5163524;28;20084;-72
2023/01/03 02:40:39;;;;;;;2.20;0.93;;;9.30;99.90;;;9.24;100.00;102118.00;5162882;28;20050;-72
2023/01/03 02:43:18;;;;;;;2.30;1.05;;;9.30;99.90;;;9.21;100.00;102116.94;5178664;28;20049;-72
2023/01/03 02:46:02;;;;;;;1.85;1.10;;;9.20;99.90;;;9.20;100.00;102122.97;5163022;28;20045;-72
2023/01/03 02:48:46;;;;;;;1.15;0.93;;;9.20;99.90;;;9.16;100.00;102113.16;5163341;28;20051;-71
2023/01/03 02:51:25;;;;;;;3.60;1.05;;;9.20;99.90;;;9.13;100.00;102121.69;5162928;28;20555;-72
2023/01/03 02:54:00;;;;;;;0.95;0.93;;;9.20;99.90;;;9.07;100.00;102115.19;5162027;28;20109;-72
2023/01/03 02:56:38;;;;;;;1.35;1.10;;;9.10;99.90;;;9.01;100.00;102117.44;5162858;28;20104;-72
2023/01/03 02:59:15;;;;;;;4.03;1.30;;;9.10;99.90;;;8.91;100.00;102111.63;5163476;28;20423;-73
2023/01/03 03:01:49;;;;;;;2.35;1.50;;;9.00;99.90;;;8.86;100.00;102120.84;5161522;28;20062;-71
2023/01/03 03:04:23;;;;;;;1.42;1.00;;;8.90;99.90;;;8.83;100.00;102117.16;5163377;28;20058;-71
2023/01/03 03:07:01;;;;;;;1.80;1.23;;;8.90;99.90;;;8.79;100.00;102118.66;5177691;28;20496;-70
2023/01/03 03:13:11;;;;;;;1.98;1.05;;;8.80;99.90;;;8.74;100.00;102122.69;5178005;28;20046;-72
2023/01/03 03:15:23;;;;;;;1.13;1.02;;;8.80;99.90;;;8.68;100.00;102127.50;5163225;28;20054;-71
2023/01/03 03:18:03;;;;;;;0.82;0.82;;;8.70;99.90;;;8.64;100.00;102125.50;5163233;28;20038;-71
2023/01/03 03:26:26;;;;;;;0.98;0.85;;;8.60;99.90;;;8.46;100.00;102127.81;5167271;28;20503;-71
2023/01/03 03:29:02;;;;;;;1.63;0.98;;;8.50;99.90;;;8.39;100.00;102129.13;5166744;28;20067;-72
2023/01/03 03:31:39;;;;;;;1.45;1.20;;;8.50;99.90;;;8.35;100.00;102134.94;5167143;28;20050;-72
2023/01/03 03:34:17;;;;;;;2.67;1.20;;;8.40;99.90;;;8.34;100.00;102127.88;5166974;28;20054;-72
2023/01/03 03:36:56;;;;;;;1.30;1.10;;;8.40;99.90;;;8.35;100.00;102134.94;5167518;28;20073;-72
2023/01/03 03:45:21;;;;;;;1.60;1.13;;;8.40;99.90;;;8.45;100.00;102138.13;5181553;28;20089;-71
2023/01/03 03:48:03;;;;;;;1.70;1.20;;;8.50;99.90;;;8.45;100.00;102139.00;5181461;28;20047;-73
2023/01/03 03:50:37;;;;;;;;;;;8.50;99.90;;;8.43;100.00;102135.44;5166747;28;20046;-72
2023/01/03 03:53:13;;;;;;;2.58;1.35;;;8.50;99.90;;;8.44;100.00;102137.22;5166453;28;20259;-71
2023/01/03 03:55:52;;;;;;;2.20;1.15;;;8.50;99.90;;;8.46;100.00;102140.81;5165199;28;20050;-71
2023/01/03 03:58:29;;;;;;;2.38;1.25;;;8.50;99.90;;;8.47;100.00;102127.00;5166242;28;20050;-72
2023/01/03 04:01:02;;;;;;;2.08;1.42;;;8.50;99.90;;;8.50;100.00;102123.72;5166180;28;20046;-71
2023/01/03 04:03:36;;;;;;;2.85;1.40;;;8.50;99.90;;;8.53;100.00;102129.09;5166013;28;20054;-72
2023/01/03 04:06:15;;;;;;;1.92;1.70;;;8.60;99.90;;;8.55;100.00;102119.72;5166122;28;20129;-72
2023/01/03 04:08:50;;;;;;;1.13;1.00;;;8.60;99.90;;;8.58;100.00;102135.50;5165984;28;20046;-72
2023/01/03 04:11:22;;;;;;;1.63;1.30;;;8.60;99.90;;;8.61;100.00;102125.31;5165797;28;20050;-71
2023/01/03 04:13:54;;;;;;;1.30;1.20;;;8.60;99.90;;;8.65;100.00;102132.50;5165926;28;20050;-71
2023/01/03 04:16:27;;;;;;;1.30;1.00;;;8.70;99.90;;;8.69;100.00;102124.09;5166090;28;20046;-71
2023/01/03 04:18:59;;;;;;;2.40;1.08;;;8.70;99.90;;;8.73;100.00;102126.06;5165784;28;20454;-70
2023/01/03 04:21:31;;;;;;;1.55;1.05;;;8.80;99.90;;;8.77;100.00;102125.47;5165760;28;20057;-72
2023/01/03 04:24:06;;;;;;;0.90;0.90;;;8.80;99.90;;;8.81;100.00;102127.47;5166072;28;20056;-71
2023/01/03 04:26:38;;;;;;;2.22;1.10;;;8.80;99.90;;;8.84;100.00;102118.97;5165461;28;20042;-72
2023/01/03 04:29:11;;;;;;;0.93;0.82;;;8.80;99.90;;;8.87;100.00;102120.06;5165423;28;20034;-71
2023/01/03 04:31:43;;;;;;;0.85;0.80;;;8.90;99.90;;;8.89;100.00;102115.84;5165410;28;20061;-70
2023/01/03 04:34:15;;;;;;;1.25;0.98;;;8.90;99.90;;;8.92;100.00;102122.94;5165084;28;20050;-72
2023/01/03 04:36:47;;;;;;;1.30;1.20;;;8.90;99.90;;;8.93;100.00;102120.44;5165701;28;20042;-72
2023/01/03 04:39:21;;;;;;;1.67;1.20;;;9.00;99.90;;;8.94;100.00;102119.63;5180048;28;20050;-71
2023/01/03 04:41:53;;;;;;;2.20;1.23;;;9.00;99.90;;;8.95;100.00;102116.22;5180492;28;20058;-71
2023/01/03 04:44:25;;;;;;;1.73;1.13;;;9.00;99.90;;;8.96;100.00;102120.63;5165431;28;20117;-71
2023/01/03 04:46:57;;;;;;;1.10;1.00;;;9.00;99.90;;;8.97;100.00;102117.22;5180434;28;20435;-72
2023/01/03 04:49:29;;;;;;;2.15;1.17;;;9.00;99.90;;;8.98;100.00;102119.00;5164986;28;20098;-71
2023/01/03 04:52:01;;;;;;;1.75;0.95;;;9.00;99.90;;;8.98;100.00;102113.81;5165204;28;20067;-71
2023/01/03 04:54:34;;;;;;;1.48;0.88;;;9.00;99.90;;;9.02;100.00;102119.22;5164255;28;20056;-71
2023/01/03 04:57:07;;;;;;;1.15;1.02;;;9.00;99.90;;;9.03;100.00;102118.41;5163517;28;20050;-71
2023/01/03 04:59:39;;;;;;;1.70;0.93;;;9.00;99.90;;;9.04;100.00;102122.78;5165017;28;20054;-71
2023/01/03 05:02:12;;;;;;;0.90;0.82;;;9.10;99.90;;;9.04;100.00;102125.41;5164999;28;20093;-71
2023/01/03 05:04:44;;;;;;;0.82;0.82;;;9.10;99.90;;;9.04;100.00;102120.19;5165323;28;20444;-75
2023/01/03 05:07:16;;;;;;;1.88;1.30;;;9.10;99.90;;;9.03;100.00;102118.41;5164491;28;20034;-72
2023/01/03 05:09:49;;;;;;;1.83;1.27;;;9.10;99.90;;;9.01;100.00;102127.81;5164455;28;20047;-72
2023/01/03 05:12:21;;;;;;;1.75;1.20;;;9.00;99.90;;;9.01;100.00;102133.03;5163492;28;20117;-71
2023/01/03 05:14:54;;;;;;;1.63;1.20;;;9.00;99.90;;;8.99;100.00;102132.91;5164994;28;20498;-72
2023/01/03 05:17:26;;;;;;;1.42;1.15;;;9.00;99.90;;;8.97;100.00;102127.63;5164521;28;20050;-74
2023/01/03 05:25:52;;;;;;;3.05;1.00;;;9.00;99.90;;;8.97;100.00;102124.13;5164912;28;20046;-74
2023/01/03 05:28:24;;;;;;;1.85;1.15;;;9.00;99.90;;;8.97;100.00;102125.00;5164668;28;20080;-72
2023/01/03 05:30:58;;;;;;;2.60;1.08;;;9.00;99.90;;;9.00;100.00;102128.59;5163213;28;20341;-71
2023/01/03 05:33:31;;;;;;;1.13;1.08;;;9.00;99.90;;;9.01;100.00;102127.81;5164425;28;20038;-71
2023/01/03 05:36:05;;;;;;;1.45;0.93;;;9.00;99.90;;;9.02;100.00;102132.22;5164537;28;20042;-71
2023/01/03 05:38:38;;;;;;;1.60;1.02;;;9.00;99.90;;;9.02;100.00;102134.81;5164169;28;20626;-71
2023/01/03 05:41:58;;;;;;;0.82;0.82;;;9.10;99.90;;;9.03;100.00;102134.00;5163909;28;20056;-73
2023/01/03 05:44:06;;;;;;;1.98;0.93;;;9.10;99.90;;;9.04;100.00;102135.81;5179523;28;20511;-73
2023/01/03 05:46:39;;;;;;;2.10;0.88;;;9.10;99.90;;;9.05;100.00;102130.69;5163821;28;20112;-73
2023/01/03 05:49:11;;;;;;;1.45;0.82;;;9.10;99.90;;;9.05;100.00;102125.50;5163769;28;20053;-71
2023/01/03 05:51:43;;;;;;;2.55;0.80;;;9.10;99.90;;;9.04;100.00;102130.59;5179410;28;20145;-71
2023/01/03 05:54:17;;;;;;;1.05;1.02;;;9.10;99.90;;;9.02;100.00;102127.03;5440887;23;20020;-72
2023/01/03 05:56:51;;;;;;;1.58;0.93;;;9.10;99.90;;;9.01;100.00;102131.31;5144618;28;20047;-71
2023/01/03 05:59:23;;;;;;;0.90;0.80;;;9.00;99.90;;;9.00;100.00;102134.72;5159199;28;20057;-71
2023/01/03 06:01:56;;;;;;;1.00;0.85;;;9.00;99.90;;;9.00;100.00;102131.19;5144812;28;20050;-72
2023/01/03 06:04:28;;;;;;;0.60;0.60;;;9.10;99.90;;;8.99;100.00;102130.31;5144633;28;20469;-71
2023/01/03 06:07:00;;;;;;;2.03;0.95;;;9.00;99.90;;;8.99;100.00;102132.91;5144185;28;20398;-71
2023/01/03 06:09:32;;;;;;;1.17;0.93;;;9.00;99.90;;;8.96;100.00;102136.22;5139162;28;20562;-72
2023/01/03 06:12:06;;;;;;;1.73;0.98;;;9.00;99.90;;;8.95;100.00;102142.25;5144330;28;20407;-72
2023/01/03 06:14:38;;;;;;;1.65;0.82;;;9.00;99.90;;;8.93;100.00;102142.94;5144711;28;20110;-71
2023/01/03 06:20:00;;;;;;;1.20;0.90;;;8.90;99.90;;;8.87;100.00;102135.66;5143984;28;20043;-71
2023/01/03 06:22:32;;;;;;;1.00;0.82;;;8.90;99.90;;;8.84;100.00;102138.06;5159587;28;20050;-71
2023/01/03 06:25:05;;;;;;;1.08;0.90;;;8.90;99.90;;;8.79;100.00;102134.25;5158938;28;20127;-72
2023/01/03 06:27:39;;;;;;;1.10;0.90;;;8.90;99.90;;;8.72;100.00;102138.97;5143118;28;20134;-71
2023/01/03 06:30:12;;;;;;;0.75;0.75;;;8.80;99.90;;;8.66;100.00;102142.09;5143905;28;20069;-73
2023/01/03 06:32:45;;;;;;;1.50;0.93;;;8.70;99.90;;;8.60;100.00;102145.19;5144310;28;20050;-71
2023/01/03 06:35:17;;;;;;;1.98;1.00;;;8.70;99.90;;;8.56;100.00;102153.59;5144106;28;20057;-71
2023/01/03 06:37:49;;;;;;;1.40;0.73;;;8.60;99.90;;;8.54;100.00;102149.09;5144188;28;20042;-72
2023/01/03 06:40:21;;;;;;;0.73;0.73;;;8.60;99.90;;;8.50;100.00;102152.31;5143682;28;20050;-71
2023/01/03 06:42:54;;;;;;;1.10;1.00;;;8.60;99.90;;;8.48;100.00;102156.53;5144307;28;20043;-71
2023/01/03 06:53:57;;;;;;;1.00;0.80;;;8.50;99.90;;;8.37;100.00;102146.31;5143371;28;20070;-72
2023/01/03 06:56:29;;;;;;;1.13;1.00;;;8.40;99.90;;;8.38;100.00;102148.13;5144322;28;20411;-72
2023/01/03 06:59:03;;;;;;;1.50;1.02;;;8.40;99.90;;;8.36;100.00;102149.72;5147918;28;20125;-71
2023/01/03 07:01:35;;;;;;;1.98;1.25;;;8.40;99.90;;;8.33;100.00;102139.06;5148445;28;20065;-72
2023/01/03 07:04:07;;;;;;;2.20;1.35;;;8.40;99.90;;;8.30;100.00;102149.28;5146529;28;20061;-63
2023/01/03 07:06:40;;;;;;;1.65;1.15;;;8.40;99.90;;;8.29;100.00;102157.88;5146924;28;20347;-62
2023/01/03 07:09:13;;;;;;;2.10;1.40;;;8.40;99.90;;;8.29;100.00;102157.88;5147188;28;20049;-62
2023/01/03 07:11:45;;;;;;;1.40;1.17;;;8.40;99.90;;;8.32;100.00;102165.88;5162083;28;20047;-62
2023/01/03 07:14:18;;;;;;;2.60;1.00;;;8.40;99.90;;;8.35;100.00;102167.78;5147575;28;20381;-63
2023/01/03 07:16:50;;;;;;;1.45;0.98;;;8.40;99.90;;;8.38;100.00;102163.69;5146746;28;20053;-61
2023/01/03 07:19:22;;;;;;;1.75;1.08;;;8.40;99.90;;;8.41;100.00;102174.31;5161911;28;20419;-62
2023/01/03 07:21:54;;;;;;;1.55;1.13;;;8.50;99.90;;;8.41;100.00;102171.72;5146853;28;20045;-62
2023/01/03 07:24:27;;;;;;;2.63;1.17;;;8.50;99.90;;;8.42;100.00;102176.09;5146897;28;20436;-61
2023/01/03 07:26:59;;;;;;;2.13;1.23;;;8.50;99.90;;;8.40;100.00;102172.50;5146528;28;20059;-61
2023/01/03 07:29:32;;;;;;;2.50;1.50;;;8.50;99.90;;;8.40;100.00;102182.00;5146774;28;20046;-62
2023/01/03 07:32:05;;;;;;;1.20;1.08;;;8.50;99.90;;;8.38;100.00;102179.28;5161217;28;20555;-62
2023/01/03 07:34:37;;;;;;;2.92;1.45;;;8.50;99.90;;;8.38;100.00;102184.50;5146372;28;20059;-63
2023/01/03 07:37:09;;;;;;;1.40;1.02;;;8.50;99.90;;;8.37;100.00;102182.69;5145641;28;20051;-63
2023/01/03 07:39:41;;;;;;;1.88;0.93;;;8.50;99.90;;;8.37;100.00;102195.69;5145329;28;20055;-63
2023/01/03 07:45:07;;;;;;;1.38;1.20;;;8.50;99.90;;;8.39;100.00;102191.47;5145650;28;20058;-61
2023/01/03 07:47:44;;;;;;;2.75;1.50;;;8.50;99.90;;;8.42;100.00;102190.81;5145887;28;20047;-62
2023/01/03 07:50:16;;;;;;;4.43;1.50;;;8.50;99.90;;;8.46;100.00;102191.88;5145465;28;20129;-62
2023/01/03 07:52:48;;;;;;;1.98;1.70;;;8.50;99.90;;;8.46;100.00;102197.09;5146451;28;20050;-62
2023/01/03 07:55:20;;;;;;;4.07;1.45;;;8.60;99.90;;;8.49;100.00;102198.19;5145724;28;20046;-62
2023/01/03 07:57:52;;;;;;;2.30;1.52;;;8.50;99.90;;;8.51;100.00;102200.91;5145950;28;20046;-62
2023/01/03 08:00:26;;;;;;;3.50;1.63;;;8.60;99.90;;;8.50;100.00;102194.81;5145341;28;20047;-61
2023/01/03 08:02:58;;;;;;;3.20;1.40;;;8.60;99.90;;;8.53;100.00;102201.88;5145669;28;20053;-62
2023/01/03 08:05:30;;;;;;;3.33;1.73;;;8.60;99.90;;;8.53;100.00;102199.28;5145739;28;20066;-62
2023/01/03 08:08:04;;;;;;;3.38;1.83;;;8.60;99.90;;;8.58;100.00;102200.50;5145342;28;20057;-62
2023/01/03 08:13:41;;;;;;;2.95;1.80;;;8.70;99.90;;;8.64;100.00;102196.59;5084037;29;20209;-64
2023/01/03 08:16:18;;;;;;;3.08;1.70;;;8.70;99.90;;;8.67;100.00;102194.19;5083749;29;20059;-61
2023/01/03 08:18:50;;;;;;;3.92;1.50;;;8.80;99.90;;;8.69;100.00;102189.09;5117761;28;20570;-63
2023/01/03 08:21:23;;;;;;;2.35;1.70;;;8.80;99.90;;;8.72;100.00;102190.97;5145383;28;20054;-63
2023/01/03 08:23:55;;;;;;;2.63;1.67;;;8.80;99.90;;;8.73;100.00;102188.47;5145490;28;20046;-62
2023/01/03 08:26:27;;;;;;;3.50;1.95;;;8.80;99.90;;;8.73;100.00;102188.47;5144033;28;20508;-60
2023/01/03 08:28:59;;;;;;;4.88;2.08;;;8.80;99.90;;;8.77;100.00;102195.69;5145151;28;20051;-58
2023/01/03 08:31:37;;;;;;;3.22;1.58;;;8.90;99.90;;;8.95;100.00;102203.75;5145549;28;20053;-59
2023/01/03 08:34:11;;;;;;;3.22;1.50;;;9.10;99.90;;;9.31;100.00;102199.94;5160244;28;20059;-58
2023/01/03 08:36:47;;;;;;;3.95;2.25;;;9.50;99.90;;;9.60;100.00;102211.28;5143766;28;20057;-57
2023/01/03 08:39:23;;;;;;;3.28;1.63;;;9.80;99.90;;;9.62;100.00;102209.66;5159793;28;20054;-58
2023/01/03 08:42:00;;;;;;;4.40;1.60;;;9.80;99.90;;;9.54;100.00;102208.31;5144151;28;20047;-58
2023/01/03 08:44:32;;;;;;;2.80;1.52;;;9.70;99.90;;;9.43;100.00;102207.63;5141710;28;20055;-58
2023/01/03 08:47:08;;;;;;;2.58;1.48;;;9.60;99.90;;;9.33;100.00;102208.78;5134899;28;20043;-59
2023/01/03 08:49:41;;;;;;;3.08;1.67;;;9.50;99.90;;;9.26;100.00;102217.00;5135374;28;20053;-58
2023/01/03 08:52:13;;;;;;;2.78;1.50;;;9.40;99.90;;;9.23;100.00;102215.09;5144548;28;20053;-58
2023/01/03 08:54:45;;;;;;;3.80;1.55;;;9.40;99.90;;;9.24;100.00;102226.41;5144639;28;20053;-58
2023/01/03 08:57:17;;;;;;;2.90;1.60;;;9.30;99.90;;;9.24;100.00;102223.81;5144285;28;20127;-58
2023/01/03 08:59:49;;;;;;;2.25;1.38;;;9.40;99.90;;;9.33;100.00;102221.78;5144738;28;20061;-58
2023/01/03 09:02:22;;;;;;;3.17;1.50;;;9.40;99.90;;;9.36;100.00;102211.56;5144857;28;20043;-57
2023/01/03 09:04:54;;;;;;;2.55;1.60;;;9.40;99.90;;;9.39;100.00;102219.56;5144826;28;20102;-58
2023/01/03 09:07:27;;;;;;;1.95;1.50;;;9.50;99.90;;;9.41;100.00;102225.75;5141996;28;20038;-60
2023/01/03 09:09:59;;;;;;;2.83;1.33;;;9.50;99.90;;;9.44;100.00;102225.94;5143799;28;20053;-58
2023/01/03 09:12:31;;;;;;;2.53;1.40;;;9.50;99.90;;;9.47;100.00;102226.16;5142936;28;20117;-59
2023/01/03 09:15:04;;;;;;;2.55;1.52;;;9.50;99.90;;;9.46;100.00;102213.94;5135567;28;20065;-58
2023/01/03 09:17:41;;;;;;;2.35;1.48;;;9.50;99.90;;;9.48;100.00;102211.44;5138818;28;20043;-58
2023/01/03 09:20:14;;;;;;;2.03;1.50;;;9.50;99.90;;;9.62;100.00;102209.66;5144032;28;20046;-57
2023/01/03 09:22:47;;;;;;;2.42;1.40;;;9.60;99.90;;;9.71;100.00;102215.41;5144548;28;20113;-56
2023/01/03 09:25:19;;;;;;;1.73;1.30;;;9.70;99.90;;;9.72;100.00;102212.03;5144604;28;20055;-58
2023/01/03 09:27:51;;;;;;;3.95;1.67;;;9.70;99.90;;;9.74;100.00;102221.72;5144358;28;20496;-57
2023/01/03 09:30:23;;;;;;;2.38;1.48;;;9.80;99.90;;;9.77;100.00;102221.00;5142857;28;20053;-58
2023/01/03 09:32:57;;;;;;;1.83;1.50;;;9.80;99.90;;;9.83;100.00;102230.88;5144370;28;20050;-57
2023/01/03 09:35:29;;;;;;;3.42;1.63;;;9.80;99.90;;;9.83;100.00;102226.56;5144248;28;20054;-58
2023/01/03 09:38:01;;;;;;;3.47;1.63;;;9.80;99.90;;;9.82;100.00;102227.38;5143419;28;20054;-57
2023/01/03 09:40:39;;;;;;;3.33;1.70;;;9.90;99.90;;;9.88;100.00;102226.88;5143746;28;20703;-58
2023/01/03 09:43:16;;;;;;;5.05;1.73;;;9.90;99.90;;;9.93;100.00;102217.63;5144790;28;20117;-57
2023/01/03 09:45:53;;;;;;;2.38;1.35;;;9.90;99.90;;;10.01;100.00;102227.69;5141400;28;20133;-57
2023/01/03 09:48:33;;;;;;;4.88;1.45;;;10.00;99.90;;;10.15;100.00;102219.78;5144147;28;20090;-57
2023/01/03 10:03:42;;;;;;;2.38;1.48;;;10.10;99.90;;;10.29;100.00;102222.44;5140092;28;20484;-56
2023/01/03 10:05:49;;;;;;;2.08;1.05;;;10.70;99.90;;;10.90;100.00;102211.13;5141681;28;20054;-56
2023/01/03 10:08:34;;;;;;;2.72;1.27;;;10.80;99.90;;;10.98;100.00;102204.59;5142022;28;20043;-57
2023/01/03 10:11:09;;;;;;;3.13;1.35;;;10.80;99.90;;;11.06;100.00;102203.31;5142093;28;20046;-57
2023/01/03 10:13:58;;;;;;;3.03;1.02;;;10.90;99.90;;;11.22;100.00;102215.50;5142030;28;20047;-57
2023/01/03 10:16:42;;;;;;;2.03;1.13;;;11.00;99.90;;;11.37;100.00;102205.88;5143308;28;20503;-56
2023/01/03 10:19:50;;;;;;;5.35;1.38;;;11.20;99.90;;;11.51;100.00;102204.91;5143507;28;20526;-56
2023/01/03 10:22:27;;;;;;;2.08;1.25;;;11.30;99.90;;;11.66;100.00;102205.72;5143942;28;20495;-57
2023/01/03 10:25:11;;;;;;;3.50;1.20;;;11.40;99.90;;;11.78;100.00;102205.47;5143871;28;20046;-56
2023/01/03 10:27:50;;;;;;;2.10;0.93;;;11.60;99.90;;;11.91;100.00;102201.81;5143994;28;20508;-58
2023/01/03 10:30:45;;;;;;;1.83;1.10;;;11.70;99.90;;;12.03;100.00;102198.94;5158527;28;20055;-57
2023/01/03 10:33:29;;;;;;;2.13;1.10;;;11.80;99.90;;;12.22;100.00;102209.50;5143351;28;20046;-59
2023/01/03 10:36:01;;;;;;;3.33;1.48;;;11.90;99.90;;;12.28;100.00;102203.69;5143773;28;20412;-59
2023/01/03 10:38:36;;;;;;;1.08;0.82;;;12.10;99.90;;;12.28;100.00;102199.34;5143652;28;20125;-57
2023/01/03 10:41:18;;;;;;;2.67;1.10;;;12.10;99.90;;;12.33;100.00;102196.97;5143158;28;20411;-57
2023/01/03 10:43:58;;;;;;;1.38;1.00;;;12.10;99.90;;;12.45;100.00;102197.56;5143488;28;20086;-58
2023/01/03 10:46:30;;;;;;;3.67;0.98;;;12.20;99.90;;;12.59;100.00;102199.16;5143704;28;20542;-57
2023/01/03 10:49:19;;;;;;;2.22;0.90;;;12.30;99.90;;;12.69;100.00;102196.13;5144239;28;20046;-57
2023/01/03 10:51:57;;;;;;;1.73;0.80;;;12.50;99.90;;;12.74;100.00;102199.88;5144616;28;20121;-58
2023/01/03 10:54:46;;;;;;;1.08;0.82;;;12.50;99.90;;;12.76;99.46;102189.47;5144824;28;20039;-59
2023/01/03 10:57:42;;;;;;;2.13;0.70;;;12.60;99.90;;;12.85;100.00;102191.66;5144383;28;20050;-58
2023/01/03 11:00:31;;;;;;;2.63;0.85;;;12.60;99.90;;;12.92;100.00;102186.78;5144038;28;20054;-57
2023/01/03 11:03:14;;;;;;;1.45;0.90;;;12.70;99.90;;;13.05;100.00;102188.25;5140473;28;20073;-58
2023/01/03 11:05:50;;;;;;;1.63;0.88;;;12.80;99.90;;;13.11;97.64;102185.94;5140235;28;20424;-57
2023/01/03 11:08:35;;;;;;;1.38;0.73;;;12.90;99.90;;;13.21;97.78;102182.03;5141410;28;20054;-58
2023/01/03 11:11:28;;;;;;;1.50;0.82;;;12.90;99.90;;;13.23;97.32;102178.66;5141956;28;20055;-57
2023/01/03 11:14:23;;;;;;;3.70;0.98;;;13.00;99.90;;;13.38;100.00;102177.59;5142800;28;20043;-56
2023/01/03 11:16:59;;;;;;;2.17;0.85;;;13.10;99.90;;;13.80;100.00;102182.09;5140617;28;20058;-60
2023/01/03 11:19:34;;;;;;;2.67;1.00;;;13.50;99.90;;;14.16;100.00;102178.38;5142260;28;20047;-61
2023/01/03 11:22:14;;;;;;;2.53;0.80;;;13.90;99.90;;;14.57;100.00;102172.22;5143153;28;20476;-60
2023/01/03 11:25:11;;;;;;;1.38;0.82;;;14.40;99.90;;;14.80;91.58;102176.69;5142716;28;20043;-60
2023/01/03 11:28:10;;;;;;;1.42;0.70;;;14.60;99.90;;;14.70;90.98;102174.50;5142689;28;20051;-62
2023/01/03 11:30:53;;;;;;;2.75;0.82;;;14.60;99.90;;;14.56;90.10;102175.69;5142300;28;20129;-63
2023/01/03 11:33:45;;;;;;;3.08;0.70;;;14.50;99.90;;;14.42;89.83;102171.59;5142698;28;20078;-62
2023/01/03 11:36:34;;;;;;;1.65;0.63;;;14.30;99.90;;;14.33;90.25;102161.59;5142663;28;20043;-62
2023/01/03 11:39:24;;;;;;;0.63;0.63;;;14.20;99.90;;;14.28;90.52;102169.28;5136998;28;20508;-61
2023/01/03 11:42:24;;;;;;;0.85;0.77;;;14.10;99.90;;;14.17;88.35;102170.56;5133867;28;20046;-57
2023/01/03 11:45:41;;;;;;;1.23;0.60;;;14.00;99.90;;;13.95;89.36;102170.47;5133822;28;20070;-58
2023/01/03 11:48:36;;;;;;;2.05;0.80;;;13.80;99.90;;;13.78;90.08;102173.28;5133066;28;20069;-58
2023/01/03 11:51:15;;;;;;;0.68;0.60;;;13.70;99.90;;;13.67;90.63;102156.19;5144786;28;20101;-59
2023/01/03 11:54:02;;;;;;;2.15;0.65;;;13.50;99.90;;;13.58;90.64;102163.66;5210758;23;20105;-60
2023/01/03 11:56:38;;;;;;;1.20;0.73;;;13.40;99.90;;;13.54;90.89;102156.47;5159134;28;20061;-59